sensor_id;sensor_type;location;lat;lon;timestamp;temperature;humidity
47174;DHT22;36730;49.036;9.094;2022-12-31T00:01:25;21.80;64.40
47174;DHT22;36730;49.036;9.094;2022-12-31T00:03:51;21.80;64.40
47174;DHT22;36730;49.036;9.094;2022-12-31T00:06:19;21.80;64.40
47174;DHT22;36730;49.036;9.094;2022-12-31T00:08:45;21.80;64.40
47174;DHT22;36730;49.036;9.094;2022-12-31T00:11:11;21.90;64.40
47174;DHT22;36730;49.036;9.094;2022-12-31T00:13:37;21.90;64.50
47174;DHT22;36730;49.036;9.094;2022-12-31T00:16:06;21.90;64.50
47174;DHT22;36730;49.036;9.094;2022-12-31T00:18:31;21.80;64.40
47174;DHT22;36730;49.036;9.094;2022-12-31T00:20:57;21.90;64.50
47174;DHT22;36730;49.036;9.094;2022-12-31T00:23:22;21.80;64.50
47174;DHT22;36730;49.036;9.094;2022-12-31T00:25:47;21.80;64.60
47174;DHT22;36730;49.036;9.094;2022-12-31T00:28:13;21.80;64.50
47174;DHT22;36730;49.036;9.094;2022-12-31T00:30:38;21.80;64.60
47174;DHT22;36730;49.036;9.094;2022-12-31T00:33:04;21.80;64.60
47174;DHT22;36730;49.036;9.094;2022-12-31T00:35:29;21.80;64.70
47174;DHT22;36730;49.036;9.094;2022-12-31T00:37:55;21.80;64.70
47174;DHT22;36730;49.036;9.094;2022-12-31T00:40:20;21.90;64.70
47174;DHT22;36730;49.036;9.094;2022-12-31T00:42:46;21.90;64.70
47174;DHT22;36730;49.036;9.094;2022-12-31T00:45:11;21.90;64.80
47174;DHT22;36730;49.036;9.094;2022-12-31T00:47:37;21.90;64.70
47174;DHT22;36730;49.036;9.094;2022-12-31T00:50:03;21.90;64.80
47174;DHT22;36730;49.036;9.094;2022-12-31T00:52:28;21.90;64.80
47174;DHT22;36730;49.036;9.094;2022-12-31T00:54:54;21.90;64.80
47174;DHT22;36730;49.036;9.094;2022-12-31T00:57:19;21.90;64.90
47174;DHT22;36730;49.036;9.094;2022-12-31T00:59:45;21.90;64.90
47174;DHT22;36730;49.036;9.094;2022-12-31T01:02:10;21.90;64.80
47174;DHT22;36730;49.036;9.094;2022-12-31T01:04:35;21.90;64.80
47174;DHT22;36730;49.036;9.094;2022-12-31T01:07:01;21.90;64.90
47174;DHT22;36730;49.036;9.094;2022-12-31T01:09:26;21.90;64.90
47174;DHT22;36730;49.036;9.094;2022-12-31T01:11:52;21.90;64.90
47174;DHT22;36730;49.036;9.094;2022-12-31T01:14:18;21.90;65.00
47174;DHT22;36730;49.036;9.094;2022-12-31T01:16:44;21.90;64.90
47174;DHT22;36730;49.036;9.094;2022-12-31T01:19:11;21.90;65.00
47174;DHT22;36730;49.036;9.094;2022-12-31T01:21:38;21.90;65.00
47174;DHT22;36730;49.036;9.094;2022-12-31T01:24:04;21.90;65.00
47174;DHT22;36730;49.036;9.094;2022-12-31T01:26:30;21.90;64.90
47174;DHT22;36730;49.036;9.094;2022-12-31T01:28:56;21.90;64.90
47174;DHT22;36730;49.036;9.094;2022-12-31T01:31:22;21.90;65.00
47174;DHT22;36730;49.036;9.094;2022-12-31T01:33:48;21.90;65.00
47174;DHT22;36730;49.036;9.094;2022-12-31T01:36:14;21.90;65.00
47174;DHT22;36730;49.036;9.094;2022-12-31T01:38:40;21.90;65.10
47174;DHT22;36730;49.036;9.094;2022-12-31T01:41:07;21.90;65.10
47174;DHT22;36730;49.036;9.094;2022-12-31T01:48:52;21.90;65.10
47174;DHT22;36730;49.036;9.094;2022-12-31T01:51:18;21.90;65.20
47174;DHT22;36730;49.036;9.094;2022-12-31T01:53:44;21.90;65.20
47174;DHT22;36730;49.036;9.094;2022-12-31T01:56:10;21.90;65.20
47174;DHT22;36730;49.036;9.094;2022-12-31T01:58:37;21.90;65.30
47174;DHT22;36730;49.036;9.094;2022-12-31T02:01:04;21.90;65.30
47174;DHT22;36730;49.036;9.094;2022-12-31T02:03:31;21.90;65.40
47174;DHT22;36730;49.036;9.094;2022-12-31T02:05:57;21.90;65.20
47174;DHT22;36730;49.036;9.094;2022-12-31T02:08:23;21.90;65.30
47174;DHT22;36730;49.036;9.094;2022-12-31T02:10:49;21.90;65.30
47174;DHT22;36730;49.036;9.094;2022-12-31T02:13:14;21.90;65.20
47174;DHT22;36730;49.036;9.094;2022-12-31T02:15:46;21.90;65.30
47174;DHT22;36730;49.036;9.094;2022-12-31T02:23:38;21.90;65.30
47174;DHT22;36730;49.036;9.094;2022-12-31T02:31:00;21.90;65.30
47174;DHT22;36730;49.036;9.094;2022-12-31T02:33:30;21.90;65.40
47174;DHT22;36730;49.036;9.094;2022-12-31T02:36:00;21.90;65.40
47174;DHT22;36730;49.036;9.094;2022-12-31T02:38:32;22.00;65.50
47174;DHT22;36730;49.036;9.094;2022-12-31T02:40:58;21.90;65.40
47174;DHT22;36730;49.036;9.094;2022-12-31T02:43:23;22.00;65.40
47174;DHT22;36730;49.036;9.094;2022-12-31T02:45:50;21.90;65.40
47174;DHT22;36730;49.036;9.094;2022-12-31T02:48:22;22.00;65.50
47174;DHT22;36730;49.036;9.094;2022-12-31T03:01:35;21.90;65.30
47174;DHT22;36730;49.036;9.094;2022-12-31T03:04:21;21.90;65.40
47174;DHT22;36730;49.036;9.094;2022-12-31T03:06:58;22.00;65.50
47174;DHT22;36730;49.036;9.094;2022-12-31T03:09:24;22.00;65.40
47174;DHT22;36730;49.036;9.094;2022-12-31T03:11:49;22.00;65.40
47174;DHT22;36730;49.036;9.094;2022-12-31T03:14:33;22.00;65.40
47174;DHT22;36730;49.036;9.094;2022-12-31T03:16:59;22.00;65.40
47174;DHT22;36730;49.036;9.094;2022-12-31T03:19:24;22.00;65.50
47174;DHT22;36730;49.036;9.094;2022-12-31T03:22:10;21.90;65.40
47174;DHT22;36730;49.036;9.094;2022-12-31T03:24:51;22.00;65.40
47174;DHT22;36730;49.036;9.094;2022-12-31T03:27:35;22.00;65.40
47174;DHT22;36730;49.036;9.094;2022-12-31T03:30:01;22.00;65.60
47174;DHT22;36730;49.036;9.094;2022-12-31T03:32:26;22.00;65.40
47174;DHT22;36730;49.036;9.094;2022-12-31T03:34:52;22.00;65.40
47174;DHT22;36730;49.036;9.094;2022-12-31T03:37:17;22.00;65.40
47174;DHT22;36730;49.036;9.094;2022-12-31T03:39:42;22.00;65.50
47174;DHT22;36730;49.036;9.094;2022-12-31T03:42:08;22.00;65.50
47174;DHT22;36730;49.036;9.094;2022-12-31T03:44:33;22.00;66.10
47174;DHT22;36730;49.036;9.094;2022-12-31T03:46:59;22.00;65.40
47174;DHT22;36730;49.036;9.094;2022-12-31T03:49:24;22.00;65.40
47174;DHT22;36730;49.036;9.094;2022-12-31T03:51:50;22.00;65.40
47174;DHT22;36730;49.036;9.094;2022-12-31T03:54:15;22.00;65.50
47174;DHT22;36730;49.036;9.094;2022-12-31T03:56:41;22.00;65.40
47174;DHT22;36730;49.036;9.094;2022-12-31T03:59:06;22.00;65.40
47174;DHT22;36730;49.036;9.094;2022-12-31T04:01:31;22.00;65.50
47174;DHT22;36730;49.036;9.094;2022-12-31T04:03:57;22.00;65.40
47174;DHT22;36730;49.036;9.094;2022-12-31T04:06:22;22.00;65.40
47174;DHT22;36730;49.036;9.094;2022-12-31T04:08:48;22.00;66.00
47174;DHT22;36730;49.036;9.094;2022-12-31T04:11:13;22.00;65.40
47174;DHT22;36730;49.036;9.094;2022-12-31T04:13:39;22.00;65.40
47174;DHT22;36730;49.036;9.094;2022-12-31T04:16:04;22.00;65.40
47174;DHT22;36730;49.036;9.094;2022-12-31T04:18:29;22.00;65.40
47174;DHT22;36730;49.036;9.094;2022-12-31T04:21:00;22.00;65.40
47174;DHT22;36730;49.036;9.094;2022-12-31T04:23:25;22.00;65.40
47174;DHT22;36730;49.036;9.094;2022-12-31T04:25:50;22.00;65.40
47174;DHT22;36730;49.036;9.094;2022-12-31T04:28:17;22.00;65.40
47174;DHT22;36730;49.036;9.094;2022-12-31T04:30:42;22.00;65.40
47174;DHT22;36730;49.036;9.094;2022-12-31T04:33:08;22.00;65.40
47174;DHT22;36730;49.036;9.094;2022-12-31T04:35:33;22.00;65.40
47174;DHT22;36730;49.036;9.094;2022-12-31T04:37:59;22.00;65.50
47174;DHT22;36730;49.036;9.094;2022-12-31T04:40:24;22.00;65.40
47174;DHT22;36730;49.036;9.094;2022-12-31T04:42:50;22.10;65.50
47174;DHT22;36730;49.036;9.094;2022-12-31T04:45:15;22.00;65.40
47174;DHT22;36730;49.036;9.094;2022-12-31T04:47:41;22.10;65.50
47174;DHT22;36730;49.036;9.094;2022-12-31T04:50:06;22.10;65.50
47174;DHT22;36730;49.036;9.094;2022-12-31T04:52:32;22.10;65.50
47174;DHT22;36730;49.036;9.094;2022-12-31T04:54:57;22.10;65.50
47174;DHT22;36730;49.036;9.094;2022-12-31T04:57:23;22.10;65.40
47174;DHT22;36730;49.036;9.094;2022-12-31T04:59:48;22.00;65.50
47174;DHT22;36730;49.036;9.094;2022-12-31T05:02:14;22.10;65.50
47174;DHT22;36730;49.036;9.094;2022-12-31T05:04:39;22.10;65.50
47174;DHT22;36730;49.036;9.094;2022-12-31T05:07:04;22.10;65.50
47174;DHT22;36730;49.036;9.094;2022-12-31T05:09:30;22.10;65.50
47174;DHT22;36730;49.036;9.094;2022-12-31T05:11:55;22.10;65.70
47174;DHT22;36730;49.036;9.094;2022-12-31T05:14:21;22.10;65.50
47174;DHT22;36730;49.036;9.094;2022-12-31T05:16:46;22.10;65.50
47174;DHT22;36730;49.036;9.094;2022-12-31T05:19:12;22.10;65.50
47174;DHT22;36730;49.036;9.094;2022-12-31T05:21:37;22.10;65.50
47174;DHT22;36730;49.036;9.094;2022-12-31T05:24:03;22.10;65.50
47174;DHT22;36730;49.036;9.094;2022-12-31T05:26:28;22.10;65.50
47174;DHT22;36730;49.036;9.094;2022-12-31T05:28:54;22.10;65.60
47174;DHT22;36730;49.036;9.094;2022-12-31T05:31:20;22.10;65.50
47174;DHT22;36730;49.036;9.094;2022-12-31T05:33:46;22.10;65.50
47174;DHT22;36730;49.036;9.094;2022-12-31T05:36:12;22.10;65.60
47174;DHT22;36730;49.036;9.094;2022-12-31T05:38:38;22.10;65.60
47174;DHT22;36730;49.036;9.094;2022-12-31T05:41:05;22.10;65.60
47174;DHT22;36730;49.036;9.094;2022-12-31T05:43:31;22.10;65.60
47174;DHT22;36730;49.036;9.094;2022-12-31T05:46:00;22.10;65.60
47174;DHT22;36730;49.036;9.094;2022-12-31T05:48:26;22.10;65.60
47174;DHT22;36730;49.036;9.094;2022-12-31T05:50:52;22.10;65.60
47174;DHT22;36730;49.036;9.094;2022-12-31T05:53:17;22.10;65.60
47174;DHT22;36730;49.036;9.094;2022-12-31T05:55:44;22.10;65.60
47174;DHT22;36730;49.036;9.094;2022-12-31T05:58:09;22.10;65.60
47174;DHT22;36730;49.036;9.094;2022-12-31T06:00:35;22.10;65.60
47174;DHT22;36730;49.036;9.094;2022-12-31T06:03:00;22.10;65.60
47174;DHT22;36730;49.036;9.094;2022-12-31T06:05:26;22.10;65.60
47174;DHT22;36730;49.036;9.094;2022-12-31T06:07:51;22.10;65.60
47174;DHT22;36730;49.036;9.094;2022-12-31T06:10:16;22.10;65.60
47174;DHT22;36730;49.036;9.094;2022-12-31T06:12:42;22.10;65.60
47174;DHT22;36730;49.036;9.094;2022-12-31T06:15:07;22.10;65.60
47174;DHT22;36730;49.036;9.094;2022-12-31T06:17:33;22.10;65.60
47174;DHT22;36730;49.036;9.094;2022-12-31T06:19:58;22.10;65.60
47174;DHT22;36730;49.036;9.094;2022-12-31T06:22:24;22.10;65.70
47174;DHT22;36730;49.036;9.094;2022-12-31T06:24:49;22.10;65.70
47174;DHT22;36730;49.036;9.094;2022-12-31T06:27:15;22.10;65.70
47174;DHT22;36730;49.036;9.094;2022-12-31T06:29:40;22.10;65.70
47174;DHT22;36730;49.036;9.094;2022-12-31T06:32:06;22.10;65.70
47174;DHT22;36730;49.036;9.094;2022-12-31T06:34:31;22.10;65.70
47174;DHT22;36730;49.036;9.094;2022-12-31T06:36:57;22.10;65.70
47174;DHT22;36730;49.036;9.094;2022-12-31T06:39:23;22.20;65.80
47174;DHT22;36730;49.036;9.094;2022-12-31T06:41:48;22.10;65.70
47174;DHT22;36730;49.036;9.094;2022-12-31T06:44:14;22.20;65.70
47174;DHT22;36730;49.036;9.094;2022-12-31T06:46:39;22.20;65.80
47174;DHT22;36730;49.036;9.094;2022-12-31T06:49:05;22.20;65.80
47174;DHT22;36730;49.036;9.094;2022-12-31T06:51:31;22.10;65.70
47174;DHT22;36730;49.036;9.094;2022-12-31T06:53:56;22.20;65.80
47174;DHT22;36730;49.036;9.094;2022-12-31T06:56:23;22.20;65.70
47174;DHT22;36730;49.036;9.094;2022-12-31T06:58:49;22.10;65.80
47174;DHT22;36730;49.036;9.094;2022-12-31T07:06:13;22.20;65.90
47174;DHT22;36730;49.036;9.094;2022-12-31T07:08:48;22.20;65.90
47174;DHT22;36730;49.036;9.094;2022-12-31T07:11:21;22.20;65.80
47174;DHT22;36730;49.036;9.094;2022-12-31T07:18:45;22.20;65.90
47174;DHT22;36730;49.036;9.094;2022-12-31T07:21:13;22.10;66.10
47174;DHT22;36730;49.036;9.094;2022-12-31T07:23:39;22.10;66.30
47174;DHT22;36730;49.036;9.094;2022-12-31T07:26:06;22.10;66.40
47174;DHT22;36730;49.036;9.094;2022-12-31T07:31:09;22.00;66.60
47174;DHT22;36730;49.036;9.094;2022-12-31T07:41:21;22.00;66.80
47174;DHT22;36730;49.036;9.094;2022-12-31T07:44:02;22.00;66.90
47174;DHT22;36730;49.036;9.094;2022-12-31T07:46:32;22.00;66.90
47174;DHT22;36730;49.036;9.094;2022-12-31T07:49:00;22.00;67.00
47174;DHT22;36730;49.036;9.094;2022-12-31T07:51:25;22.00;67.00
47174;DHT22;36730;49.036;9.094;2022-12-31T07:53:51;22.00;66.90
47174;DHT22;36730;49.036;9.094;2022-12-31T07:56:16;21.90;67.00
47174;DHT22;36730;49.036;9.094;2022-12-31T08:01:32;22.00;67.10
47174;DHT22;36730;49.036;9.094;2022-12-31T08:04:01;22.00;67.20
47174;DHT22;36730;49.036;9.094;2022-12-31T08:11:46;21.90;67.10
47174;DHT22;36730;49.036;9.094;2022-12-31T08:14:13;21.90;67.20
47174;DHT22;36730;49.036;9.094;2022-12-31T08:16:39;21.90;67.30
47174;DHT22;36730;49.036;9.094;2022-12-31T08:19:04;21.90;67.30
47174;DHT22;36730;49.036;9.094;2022-12-31T08:24:14;21.90;67.40
47174;DHT22;36730;49.036;9.094;2022-12-31T08:29:44;21.90;67.40
47174;DHT22;36730;49.036;9.094;2022-12-31T08:34:52;21.90;67.60
47174;DHT22;36730;49.036;9.094;2022-12-31T08:37:23;21.90;67.60
47174;DHT22;36730;49.036;9.094;2022-12-31T08:44:54;21.80;67.50
47174;DHT22;36730;49.036;9.094;2022-12-31T08:49:47;21.80;67.60
47174;DHT22;36730;49.036;9.094;2022-12-31T08:52:19;21.80;67.60
47174;DHT22;36730;49.036;9.094;2022-12-31T08:54:46;21.80;67.60
47174;DHT22;36730;49.036;9.094;2022-12-31T09:05:12;21.80;67.70
47174;DHT22;36730;49.036;9.094;2022-12-31T09:07:45;21.80;67.70
47174;DHT22;36730;49.036;9.094;2022-12-31T09:15:29;21.80;67.70
47174;DHT22;36730;49.036;9.094;2022-12-31T09:17:58;21.80;67.60
47174;DHT22;36730;49.036;9.094;2022-12-31T09:20:30;21.80;67.70
47174;DHT22;36730;49.036;9.094;2022-12-31T09:22:56;21.80;67.70
47174;DHT22;36730;49.036;9.094;2022-12-31T09:25:23;21.80;67.60
47174;DHT22;36730;49.036;9.094;2022-12-31T09:33:25;21.80;67.90
47174;DHT22;36730;49.036;9.094;2022-12-31T09:35:56;21.80;67.80
47174;DHT22;36730;49.036;9.094;2022-12-31T09:38:30;21.80;67.60
47174;DHT22;36730;49.036;9.094;2022-12-31T09:48:49;21.80;67.60
47174;DHT22;36730;49.036;9.094;2022-12-31T09:56:32;21.80;67.70
47174;DHT22;36730;49.036;9.094;2022-12-31T09:59:02;21.80;67.60
47174;DHT22;36730;49.036;9.094;2022-12-31T10:04:05;21.90;67.80
47174;DHT22;36730;49.036;9.094;2022-12-31T10:27:35;21.90;67.80
47174;DHT22;36730;49.036;9.094;2022-12-31T10:30:16;21.90;68.00
47174;DHT22;36730;49.036;9.094;2022-12-31T10:32:51;21.90;67.80
47174;DHT22;36730;49.036;9.094;2022-12-31T10:35:30;21.90;67.80
47174;DHT22;36730;49.036;9.094;2022-12-31T10:51:29;21.90;67.70
47174;DHT22;36730;49.036;9.094;2022-12-31T11:04:54;21.90;67.70
47174;DHT22;36730;49.036;9.094;2022-12-31T11:17:30;22.00;67.60
47174;DHT22;36730;49.036;9.094;2022-12-31T11:20:41;22.00;67.60
47174;DHT22;36730;49.036;9.094;2022-12-31T11:23:00;22.00;67.60
47174;DHT22;36730;49.036;9.094;2022-12-31T11:28:13;22.00;67.50
47174;DHT22;36730;49.036;9.094;2022-12-31T11:33:20;22.10;67.50
47174;DHT22;36730;49.036;9.094;2022-12-31T11:35:54;22.10;67.40
47174;DHT22;36730;49.036;9.094;2022-12-31T11:38:25;22.10;67.40
47174;DHT22;36730;49.036;9.094;2022-12-31T11:43:36;22.10;67.30
47174;DHT22;36730;49.036;9.094;2022-12-31T11:54:27;22.10;67.20
47174;DHT22;36730;49.036;9.094;2022-12-31T11:56:58;22.10;67.20
47174;DHT22;36730;49.036;9.094;2022-12-31T11:59:26;22.10;67.10
47174;DHT22;36730;49.036;9.094;2022-12-31T12:02:00;22.20;67.20
47174;DHT22;36730;49.036;9.094;2022-12-31T12:04:28;22.20;67.20
47174;DHT22;36730;49.036;9.094;2022-12-31T12:06:54;22.20;67.10
47174;DHT22;36730;49.036;9.094;2022-12-31T12:09:26;22.20;67.10
47174;DHT22;36730;49.036;9.094;2022-12-31T12:12:00;22.20;67.00
47174;DHT22;36730;49.036;9.094;2022-12-31T12:14:30;22.20;67.00
47174;DHT22;36730;49.036;9.094;2022-12-31T12:16:56;22.20;67.00
47174;DHT22;36730;49.036;9.094;2022-12-31T12:19:23;22.20;67.00
47174;DHT22;36730;49.036;9.094;2022-12-31T12:21:50;22.20;67.00
47174;DHT22;36730;49.036;9.094;2022-12-31T12:24:18;22.20;66.90
47174;DHT22;36730;49.036;9.094;2022-12-31T12:26:44;22.20;66.90
47174;DHT22;36730;49.036;9.094;2022-12-31T12:29:19;22.20;66.90
47174;DHT22;36730;49.036;9.094;2022-12-31T12:31:55;22.20;66.90
47174;DHT22;36730;49.036;9.094;2022-12-31T12:34:28;22.20;66.90
47174;DHT22;36730;49.036;9.094;2022-12-31T12:36:54;22.20;66.90
47174;DHT22;36730;49.036;9.094;2022-12-31T12:39:21;22.20;66.80
47174;DHT22;36730;49.036;9.094;2022-12-31T12:41:46;22.20;66.80
47174;DHT22;36730;49.036;9.094;2022-12-31T12:44:13;22.20;66.80
47174;DHT22;36730;49.036;9.094;2022-12-31T12:46:43;22.30;66.80
47174;DHT22;36730;49.036;9.094;2022-12-31T12:49:30;22.30;66.80
47174;DHT22;36730;49.036;9.094;2022-12-31T12:52:02;22.20;66.70
47174;DHT22;36730;49.036;9.094;2022-12-31T12:57:03;22.20;66.80
47174;DHT22;36730;49.036;9.094;2022-12-31T13:02:28;22.20;67.10
47174;DHT22;36730;49.036;9.094;2022-12-31T13:04:59;22.20;67.50
47174;DHT22;36730;49.036;9.094;2022-12-31T13:14:47;22.10;67.80
47174;DHT22;36730;49.036;9.094;2022-12-31T13:22:45;22.20;67.30
47174;DHT22;36730;49.036;9.094;2022-12-31T13:27:44;22.20;67.80
47174;DHT22;36730;49.036;9.094;2022-12-31T13:30:24;22.20;67.20
47174;DHT22;36730;49.036;9.094;2022-12-31T13:32:51;22.10;67.30
47174;DHT22;36730;49.036;9.094;2022-12-31T13:35:26;22.20;67.40
47174;DHT22;36730;49.036;9.094;2022-12-31T13:38:12;22.20;67.50
47174;DHT22;36730;49.036;9.094;2022-12-31T13:43:15;22.20;67.40
47174;DHT22;36730;49.036;9.094;2022-12-31T13:45:42;22.20;67.40
47174;DHT22;36730;49.036;9.094;2022-12-31T13:48:12;22.20;67.40
47174;DHT22;36730;49.036;9.094;2022-12-31T13:50:43;22.20;67.40
47174;DHT22;36730;49.036;9.094;2022-12-31T13:56:18;22.20;67.40
47174;DHT22;36730;49.036;9.094;2022-12-31T13:58:48;22.20;67.40
47174;DHT22;36730;49.036;9.094;2022-12-31T14:08:50;22.20;67.50
47174;DHT22;36730;49.036;9.094;2022-12-31T14:11:40;22.20;67.50
47174;DHT22;36730;49.036;9.094;2022-12-31T14:22:21;22.20;67.60
47174;DHT22;36730;49.036;9.094;2022-12-31T14:26:55;22.20;67.50
47174;DHT22;36730;49.036;9.094;2022-12-31T14:37:06;22.10;67.60
47174;DHT22;36730;49.036;9.094;2022-12-31T14:39:37;22.10;67.60
47174;DHT22;36730;49.036;9.094;2022-12-31T14:54:45;22.10;67.70
47174;DHT22;36730;49.036;9.094;2022-12-31T14:57:20;22.10;67.70
47174;DHT22;36730;49.036;9.094;2022-12-31T14:59:56;22.10;67.80
47174;DHT22;36730;49.036;9.094;2022-12-31T15:02:25;22.10;67.80
47174;DHT22;36730;49.036;9.094;2022-12-31T15:04:50;22.10;67.80
47174;DHT22;36730;49.036;9.094;2022-12-31T15:07:29;22.10;67.70
47174;DHT22;36730;49.036;9.094;2022-12-31T15:10:32;22.10;68.40
47174;DHT22;36730;49.036;9.094;2022-12-31T15:17:44;22.00;67.80
47174;DHT22;36730;49.036;9.094;2022-12-31T15:20:16;22.10;67.80
47174;DHT22;36730;49.036;9.094;2022-12-31T15:22:46;22.00;67.80
47174;DHT22;36730;49.036;9.094;2022-12-31T15:25:19;22.10;68.00
47174;DHT22;36730;49.036;9.094;2022-12-31T15:27:45;22.00;68.10
47174;DHT22;36730;49.036;9.094;2022-12-31T15:32:55;22.00;67.80
47174;DHT22;36730;49.036;9.094;2022-12-31T15:40:31;22.00;68.10
47174;DHT22;36730;49.036;9.094;2022-12-31T15:45:37;22.00;68.00
47174;DHT22;36730;49.036;9.094;2022-12-31T15:51:02;22.00;68.10
47174;DHT22;36730;49.036;9.094;2022-12-31T15:53:33;22.00;68.30
47174;DHT22;36730;49.036;9.094;2022-12-31T15:56:00;22.00;68.30
47174;DHT22;36730;49.036;9.094;2022-12-31T15:58:27;21.90;68.20
47174;DHT22;36730;49.036;9.094;2022-12-31T16:01:13;21.90;68.20
47174;DHT22;36730;49.036;9.094;2022-12-31T16:03:44;21.90;68.30
47174;DHT22;36730;49.036;9.094;2022-12-31T16:06:11;21.90;68.40
47174;DHT22;36730;49.036;9.094;2022-12-31T16:08:37;21.90;68.50
47174;DHT22;36730;49.036;9.094;2022-12-31T16:11:05;21.90;68.30
47174;DHT22;36730;49.036;9.094;2022-12-31T16:13:31;21.90;68.50
47174;DHT22;36730;49.036;9.094;2022-12-31T16:16:03;21.90;68.40
47174;DHT22;36730;49.036;9.094;2022-12-31T16:18:39;21.90;68.40
47174;DHT22;36730;49.036;9.094;2022-12-31T16:21:19;21.90;68.40
47174;DHT22;36730;49.036;9.094;2022-12-31T16:23:50;21.90;68.40
47174;DHT22;36730;49.036;9.094;2022-12-31T16:26:16;21.90;68.40
47174;DHT22;36730;49.036;9.094;2022-12-31T16:28:41;21.90;68.40
47174;DHT22;36730;49.036;9.094;2022-12-31T16:31:13;21.90;68.40
47174;DHT22;36730;49.036;9.094;2022-12-31T16:33:40;21.90;68.40
47174;DHT22;36730;49.036;9.094;2022-12-31T16:36:06;21.90;68.50
47174;DHT22;36730;49.036;9.094;2022-12-31T16:38:33;21.90;68.50
47174;DHT22;36730;49.036;9.094;2022-12-31T16:45:56;21.90;68.50
47174;DHT22;36730;49.036;9.094;2022-12-31T16:48:22;21.90;68.50
47174;DHT22;36730;49.036;9.094;2022-12-31T16:50:48;21.80;68.60
47174;DHT22;36730;49.036;9.094;2022-12-31T16:53:18;21.80;68.60
47174;DHT22;36730;49.036;9.094;2022-12-31T16:55:54;21.80;68.60
47174;DHT22;36730;49.036;9.094;2022-12-31T16:58:25;21.80;68.70
47174;DHT22;36730;49.036;9.094;2022-12-31T17:00:52;21.80;68.70
47174;DHT22;36730;49.036;9.094;2022-12-31T17:03:20;21.80;68.70
47174;DHT22;36730;49.036;9.094;2022-12-31T17:06:19;21.80;68.60
47174;DHT22;36730;49.036;9.094;2022-12-31T17:08:44;21.70;68.60
47174;DHT22;36730;49.036;9.094;2022-12-31T17:13:44;21.70;68.70
47174;DHT22;36730;49.036;9.094;2022-12-31T17:16:16;21.70;68.70
47174;DHT22;36730;49.036;9.094;2022-12-31T17:18:42;21.70;68.70
47174;DHT22;36730;49.036;9.094;2022-12-31T17:21:08;21.70;68.70
47174;DHT22;36730;49.036;9.094;2022-12-31T17:23:35;21.70;68.80
47174;DHT22;36730;49.036;9.094;2022-12-31T17:26:08;21.70;68.70
47174;DHT22;36730;49.036;9.094;2022-12-31T17:28:44;21.80;68.80
47174;DHT22;36730;49.036;9.094;2022-12-31T17:31:56;21.70;68.80
47174;DHT22;36730;49.036;9.094;2022-12-31T17:36:36;21.70;68.80
47174;DHT22;36730;49.036;9.094;2022-12-31T17:39:17;21.70;68.80
47174;DHT22;36730;49.036;9.094;2022-12-31T17:41:44;21.70;68.80
47174;DHT22;36730;49.036;9.094;2022-12-31T17:44:14;21.70;69.00
47174;DHT22;36730;49.036;9.094;2022-12-31T17:46:41;21.70;69.00
47174;DHT22;36730;49.036;9.094;2022-12-31T17:49:07;21.70;69.10
47174;DHT22;36730;49.036;9.094;2022-12-31T17:51:35;21.70;69.20
47174;DHT22;36730;49.036;9.094;2022-12-31T17:54:01;21.70;69.00
47174;DHT22;36730;49.036;9.094;2022-12-31T17:56:26;21.60;68.90
47174;DHT22;36730;49.036;9.094;2022-12-31T17:58:52;21.60;69.00
47174;DHT22;36730;49.036;9.094;2022-12-31T18:01:19;21.70;69.20
47174;DHT22;36730;49.036;9.094;2022-12-31T18:03:45;21.70;69.20
47174;DHT22;36730;49.036;9.094;2022-12-31T18:06:12;21.70;69.10
47174;DHT22;36730;49.036;9.094;2022-12-31T18:08:37;21.70;69.00
47174;DHT22;36730;49.036;9.094;2022-12-31T18:11:03;21.60;69.20
47174;DHT22;36730;49.036;9.094;2022-12-31T18:13:28;21.70;69.10
47174;DHT22;36730;49.036;9.094;2022-12-31T18:15:55;21.60;69.10
47174;DHT22;36730;49.036;9.094;2022-12-31T18:20:46;21.60;69.30
47174;DHT22;36730;49.036;9.094;2022-12-31T18:23:20;21.60;69.20
47174;DHT22;36730;49.036;9.094;2022-12-31T18:25:47;21.60;69.10
47174;DHT22;36730;49.036;9.094;2022-12-31T18:28:12;21.60;69.10
47174;DHT22;36730;49.036;9.094;2022-12-31T18:30:38;21.60;69.20
47174;DHT22;36730;49.036;9.094;2022-12-31T18:33:04;21.60;69.20
47174;DHT22;36730;49.036;9.094;2022-12-31T18:35:30;21.60;69.20
47174;DHT22;36730;49.036;9.094;2022-12-31T18:37:56;21.50;69.20
47174;DHT22;36730;49.036;9.094;2022-12-31T18:40:22;21.50;69.20
47174;DHT22;36730;49.036;9.094;2022-12-31T18:42:47;21.50;69.30
47174;DHT22;36730;49.036;9.094;2022-12-31T18:45:16;21.50;69.30
47174;DHT22;36730;49.036;9.094;2022-12-31T18:47:42;21.50;69.30
47174;DHT22;36730;49.036;9.094;2022-12-31T18:50:11;21.50;69.40
47174;DHT22;36730;49.036;9.094;2022-12-31T18:52:37;21.50;69.30
47174;DHT22;36730;49.036;9.094;2022-12-31T18:55:10;21.50;69.30
47174;DHT22;36730;49.036;9.094;2022-12-31T18:57:38;21.50;69.40
47174;DHT22;36730;49.036;9.094;2022-12-31T19:00:03;21.50;69.40
47174;DHT22;36730;49.036;9.094;2022-12-31T19:02:29;21.50;69.40
47174;DHT22;36730;49.036;9.094;2022-12-31T19:04:54;21.50;69.50
47174;DHT22;36730;49.036;9.094;2022-12-31T19:07:20;21.50;69.40
47174;DHT22;36730;49.036;9.094;2022-12-31T19:09:45;21.50;69.50
47174;DHT22;36730;49.036;9.094;2022-12-31T19:12:11;21.50;69.50
47174;DHT22;36730;49.036;9.094;2022-12-31T19:14:37;21.50;69.50
47174;DHT22;36730;49.036;9.094;2022-12-31T19:17:02;21.50;69.50
47174;DHT22;36730;49.036;9.094;2022-12-31T19:19:28;21.50;69.60
47174;DHT22;36730;49.036;9.094;2022-12-31T19:21:53;21.40;69.60
47174;DHT22;36730;49.036;9.094;2022-12-31T19:24:20;21.50;69.60
47174;DHT22;36730;49.036;9.094;2022-12-31T19:26:46;21.40;70.20
47174;DHT22;36730;49.036;9.094;2022-12-31T19:29:18;21.40;69.70
47174;DHT22;36730;49.036;9.094;2022-12-31T19:31:44;21.40;69.80
47174;DHT22;36730;49.036;9.094;2022-12-31T19:34:09;21.40;69.70
47174;DHT22;36730;49.036;9.094;2022-12-31T19:36:35;21.40;69.70
47174;DHT22;36730;49.036;9.094;2022-12-31T19:39:02;21.40;69.80
47174;DHT22;36730;49.036;9.094;2022-12-31T19:41:27;21.40;69.80
47174;DHT22;36730;49.036;9.094;2022-12-31T19:43:53;21.40;69.90
47174;DHT22;36730;49.036;9.094;2022-12-31T19:46:18;21.30;69.90
47174;DHT22;36730;49.036;9.094;2022-12-31T19:48:44;21.30;70.00
47174;DHT22;36730;49.036;9.094;2022-12-31T19:51:11;21.30;70.00
47174;DHT22;36730;49.036;9.094;2022-12-31T19:53:36;21.30;70.10
47174;DHT22;36730;49.036;9.094;2022-12-31T19:56:02;21.30;70.10
47174;DHT22;36730;49.036;9.094;2022-12-31T19:58:28;21.30;70.10
47174;DHT22;36730;49.036;9.094;2022-12-31T20:00:54;21.30;70.10
47174;DHT22;36730;49.036;9.094;2022-12-31T20:03:20;21.30;70.10
47174;DHT22;36730;49.036;9.094;2022-12-31T20:05:45;21.30;70.10
47174;DHT22;36730;49.036;9.094;2022-12-31T20:08:11;21.30;70.20